createdAt,value
2022-08-17T00:00:39.706Z,74.66
2022-08-17T00:03:13.681Z,74.52
2022-08-17T00:05:46.154Z,74.67
2022-08-17T00:08:15.362Z,73.98
2022-08-17T00:10:46.419Z,74.19
2022-08-17T00:13:17.396Z,73.75
2022-08-17T00:15:47.378Z,73.54
2022-08-17T00:19:05.801Z,73.95
2022-08-17T00:21:10.449Z,73.64
2022-08-17T00:23:39.635Z,73.58
2022-08-17T00:26:35.836Z,75.67
2022-08-17T00:29:07.853Z,76.27
2022-08-17T00:31:37.825Z,75.59
2022-08-17T00:34:08.784Z,76.46
2022-08-17T00:36:36.687Z,76.99
2022-08-17T00:39:05.010Z,77.43
2022-08-17T00:41:35.664Z,77.03
2022-08-17T00:44:06.511Z,76.40
2022-08-17T00:46:39.540Z,75.81
2022-08-17T00:49:09.996Z,77.46
2022-08-17T00:51:43.085Z,77.52
2022-08-17T00:54:15.148Z,77.68
2022-08-17T00:56:46.768Z,77.05
2022-08-17T00:59:18.697Z,77.04
2022-08-17T01:01:50.617Z,76.66
2022-08-17T01:04:20.976Z,76.61
2022-08-17T01:06:50.733Z,76.97
2022-08-17T01:09:20.198Z,76.98
2022-08-17T01:11:52.466Z,77.02
2022-08-17T01:14:21.564Z,78.34
2022-08-17T01:16:52.653Z,78.74
2022-08-17T01:19:24.373Z,79.07
2022-08-17T01:21:57.928Z,79.92
2022-08-17T01:24:29.346Z,80.17
2022-08-17T01:26:57.623Z,79.90
2022-08-17T01:29:26.822Z,80.52
2022-08-17T01:31:57.996Z,80.55
2022-08-17T01:34:42.694Z,80.85
2022-08-17T01:37:12.484Z,80.72
2022-08-17T01:39:45.207Z,80.38
2022-08-17T01:42:20.225Z,79.97
2022-08-17T01:44:48.127Z,80.43
2022-08-17T01:47:16.165Z,80.93
2022-08-17T01:49:45.561Z,81.25
2022-08-17T01:52:13.865Z,81.60
2022-08-17T01:54:46.121Z,80.90
2022-08-17T01:57:14.589Z,80.72
2022-08-17T01:59:42.817Z,80.59
2022-08-17T02:02:11.310Z,82.40
2022-08-17T02:04:58.015Z,83.41
2022-08-17T02:07:27.113Z,83.39
2022-08-17T02:09:56.875Z,83.51
2022-08-17T02:12:39.352Z,82.85
2022-08-17T02:15:15.125Z,82.27
2022-08-17T02:17:44.474Z,82.32
2022-08-17T02:20:12.572Z,82.64
2022-08-17T02:22:42.256Z,82.83
2022-08-17T02:25:14.718Z,83.45
2022-08-17T02:27:43.247Z,84.03
2022-08-17T02:30:59.851Z,85.90
2022-08-17T02:33:04.177Z,85.41
2022-08-17T02:35:34.054Z,85.47
2022-08-17T02:38:02.157Z,85.47
2022-08-17T02:40:36.011Z,84.95
2022-08-17T02:43:05.392Z,86.94
2022-08-17T02:45:33.411Z,87.04
2022-08-17T02:48:01.257Z,86.76
2022-08-17T02:50:29.509Z,87.01
2022-08-17T02:53:01.665Z,87.38
2022-08-17T02:55:36.301Z,87.89
2022-08-17T02:58:04.582Z,87.77
2022-08-17T03:00:35.541Z,86.85
2022-08-17T03:03:05.548Z,86.50
2022-08-17T03:05:35.492Z,86.39
2022-08-17T03:08:04.362Z,85.72
2022-08-17T03:10:34.093Z,87.13
2022-08-17T03:13:02.332Z,88.86
2022-08-17T03:15:33.625Z,89.58
2022-08-17T03:18:03.673Z,89.70
2022-08-17T03:20:33.585Z,89.05
2022-08-17T03:23:02.980Z,88.46
2022-08-17T03:25:35.286Z,88.48
2022-08-17T03:28:03.508Z,88.20
2022-08-17T03:30:31.789Z,89.06
2022-08-17T03:33:03.169Z,89.60
2022-08-17T03:35:33.998Z,90.18
2022-08-17T03:38:02.415Z,90.36
2022-08-17T03:40:34.626Z,89.84
2022-08-17T03:43:23.000Z,90.55
2022-08-17T03:46:11.091Z,91.04
2022-08-17T03:49:14.853Z,91.59
2022-08-17T03:52:00.002Z,91.30
2022-08-17T03:54:45.354Z,92.06
2022-08-17T03:57:14.009Z,91.39
2022-08-17T03:59:45.015Z,92.56
2022-08-17T04:02:17.431Z,92.40
2022-08-17T04:04:45.537Z,91.39
2022-08-17T04:07:13.669Z,90.81
2022-08-17T04:09:42.887Z,91.35
2022-08-17T04:12:10.881Z,92.48
2022-08-17T04:14:53.347Z,91.86
2022-08-17T04:17:26.830Z,92.74
2022-08-17T04:19:55.873Z,91.70
2022-08-17T04:22:32.479Z,92.33
2022-08-17T04:25:03.887Z,92.10
2022-08-17T04:27:31.778Z,92.11
2022-08-17T04:29:59.641Z,92.12
2022-08-17T04:33:04.631Z,92.11
2022-08-17T04:35:20.347Z,91.38
2022-08-17T04:37:48.434Z,91.18
2022-08-17T04:40:34.422Z,91.32
2022-08-17T04:43:04.747Z,92.00
2022-08-17T04:45:32.805Z,90.87
2022-08-17T04:48:02.631Z,90.14
2022-08-17T04:50:30.575Z,90.49
2022-08-17T04:52:58.917Z,90.59
2022-08-17T04:55:27.115Z,90.17
2022-08-17T04:57:55.500Z,89.99
2022-08-17T05:00:25.738Z,89.92
2022-08-17T05:02:56.017Z,89.28
2022-08-17T05:05:28.185Z,88.87
2022-08-17T05:07:58.587Z,88.48
2022-08-17T05:10:28.923Z,88.32
2022-08-17T05:13:03.359Z,87.57
2022-08-17T05:15:33.101Z,87.54
2022-08-17T05:18:04.384Z,87.51
2022-08-17T05:20:34.932Z,86.67
2022-08-17T05:23:07.045Z,86.01
2022-08-17T05:25:37.648Z,86.32
2022-08-17T05:28:06.792Z,86.07
2022-08-17T05:30:36.321Z,86.05
2022-08-17T05:33:07.831Z,85.64
2022-08-17T05:35:39.723Z,86.24
2022-08-17T05:38:08.342Z,86.62
2022-08-17T05:40:36.674Z,87.44
2022-08-17T05:43:06.873Z,85.87
2022-08-17T05:45:54.164Z,83.99
2022-08-17T05:48:39.190Z,83.16
2022-08-17T05:51:25.670Z,83.66
2022-08-17T05:54:01.869Z,82.69
2022-08-17T05:56:52.742Z,81.89
2022-08-17T06:01:59.306Z,81.02
2022-08-17T06:04:42.167Z,80.67
2022-08-17T06:07:18.951Z,80.60
2022-08-17T06:09:55.086Z,79.59
2022-08-17T06:12:45.745Z,77.53
2022-08-17T06:15:24.628Z,78.65
2022-08-17T06:17:56.506Z,76.90
2022-08-17T06:20:28.164Z,76.75
2022-08-17T06:23:05.946Z,76.53
2022-08-17T06:25:40.351Z,75.15
2022-08-17T06:28:14.745Z,74.72
2022-08-17T06:30:59.697Z,71.80
2022-08-17T06:33:34.133Z,71.52
2022-08-17T06:36:16.073Z,70.51
2022-08-17T06:38:54.376Z,69.41
2022-08-17T06:41:27.607Z,69.41
2022-08-17T06:44:10.284Z,67.70
2022-08-17T06:46:42.547Z,67.09
2022-08-17T06:49:19.809Z,67.10
2022-08-17T06:51:52.815Z,66.95
2022-08-17T06:54:33.149Z,66.60
2022-08-17T06:57:14.533Z,66.12
2022-08-17T06:59:55.684Z,66.09
2022-08-17T07:02:52.363Z,64.92
2022-08-17T07:05:24.215Z,64.06
2022-08-17T07:08:04.468Z,64.53
2022-08-17T07:10:44.452Z,64.38
2022-08-17T07:13:38.790Z,63.28
2022-08-17T07:16:15.010Z,63.54
2022-08-17T07:18:43.704Z,64.50
2022-08-17T07:21:26.194Z,63.70
2022-08-17T07:24:07.968Z,66.04
2022-08-17T07:26:38.861Z,65.70
2022-08-17T07:29:07.180Z,63.37
2022-08-17T07:31:35.160Z,64.04
2022-08-17T07:34:07.983Z,62.10
2022-08-17T07:36:35.903Z,63.52
2022-08-17T07:39:05.458Z,63.73
2022-08-17T07:41:57.810Z,64.11
2022-08-17T07:44:27.777Z,62.62
2022-08-17T07:47:14.200Z,62.40
2022-08-17T07:49:46.275Z,60.68
2022-08-17T07:52:50.752Z,61.06
2022-08-17T07:55:28.093Z,59.08
2022-08-17T07:57:59.038Z,59.53
2022-08-17T08:00:31.396Z,58.81
2022-08-17T08:03:16.552Z,58.92
2022-08-17T08:05:54.648Z,58.05
2022-08-17T08:08:27.998Z,58.12
2022-08-17T08:11:05.496Z,56.61
2022-08-17T08:13:40.400Z,56.17
2022-08-17T08:16:27.122Z,54.17
2022-08-17T08:18:58.132Z,53.66
2022-08-17T08:21:47.540Z,52.50
2022-08-17T08:24:40.168Z,52.07
2022-08-17T08:27:21.310Z,51.42
2022-08-17T08:29:55.480Z,49.81
2022-08-17T08:32:36.968Z,49.86
2022-08-17T08:35:08.709Z,49.81
2022-08-17T08:37:46.881Z,49.34
2022-08-17T08:40:33.396Z,46.80
2022-08-17T08:43:12.561Z,47.78
2022-08-17T08:45:50.894Z,47.47
2022-08-17T08:48:58.037Z,47.20
2022-08-17T08:51:37.767Z,46.72
2022-08-17T08:54:13.994Z,47.88
2022-08-17T08:57:11.888Z,47.21
2022-08-17T08:59:44.819Z,46.17
2022-08-17T09:02:46.662Z,46.94
2022-08-17T09:05:25.867Z,46.70
2022-08-17T09:08:01.738Z,47.59
2022-08-17T09:10:40.582Z,45.95
2022-08-17T09:13:17.910Z,45.90
2022-08-17T09:15:49.308Z,45.38
2022-08-17T09:19:00.337Z,44.85
2022-08-17T09:21:19.220Z,45.46
2022-08-17T09:23:59.775Z,46.68
2022-08-17T09:26:32.275Z,46.30
2022-08-17T09:29:04.374Z,45.66
2022-08-17T09:31:35.485Z,44.78
2022-08-17T09:34:18.505Z,46.30
2022-08-17T09:36:52.365Z,45.58
2022-08-17T09:39:29.262Z,45.03
2022-08-17T09:42:03.861Z,45.69
2022-08-17T09:44:39.140Z,45.61
2022-08-17T09:47:12.057Z,44.92
2022-08-17T09:49:47.368Z,44.72
2022-08-17T09:52:20.966Z,44.47
2022-08-17T09:54:51.828Z,45.85
2022-08-17T09:57:35.679Z,44.95
2022-08-17T10:00:20.101Z,45.16
2022-08-17T10:03:16.290Z,45.03
2022-08-17T10:05:57.100Z,44.74
2022-08-17T10:08:34.934Z,43.50
2022-08-17T10:11:22.403Z,44.16
2022-08-17T10:14:36.429Z,44.00
2022-08-17T10:17:08.330Z,43.88
2022-08-17T10:19:43.975Z,42.40
2022-08-17T10:22:38.344Z,41.74
2022-08-17T10:25:42.538Z,42.57
2022-08-17T10:28:21.469Z,41.86
2022-08-17T10:31:10.473Z,40.52
2022-08-17T10:33:55.342Z,40.76
2022-08-17T10:36:29.528Z,39.60
2022-08-17T10:39:08.936Z,39.73
2022-08-17T10:41:42.268Z,39.78
2022-08-17T10:44:37.066Z,38.66
2022-08-17T10:47:11.302Z,38.60
2022-08-17T10:49:44.189Z,37.88
2022-08-17T10:52:45.484Z,37.92
2022-08-17T10:55:17.966Z,37.84
2022-08-17T10:57:47.116Z,38.02
2022-08-17T11:00:31.771Z,36.86
2022-08-17T11:03:00.145Z,37.22
2022-08-17T11:05:52.226Z,35.90
2022-08-17T11:08:57.548Z,36.30
2022-08-17T11:12:06.909Z,35.69
2022-08-17T11:14:47.149Z,35.63
2022-08-17T11:17:43.317Z,34.31
2022-08-17T11:20:28.578Z,33.05
2022-08-17T11:23:36.004Z,33.29
2022-08-17T11:26:18.645Z,33.64
2022-08-17T11:28:52.652Z,33.71
2022-08-17T11:31:38.442Z,34.36
2022-08-17T11:34:15.100Z,34.66
2022-08-17T11:37:02.659Z,34.53
2022-08-17T11:39:50.225Z,34.96
2022-08-17T11:42:31.059Z,35.02
2022-08-17T11:45:09.461Z,33.30
2022-08-17T11:48:26.729Z,34.56
2022-08-17T11:51:17.217Z,34.61
2022-08-17T11:54:32.142Z,34.20
2022-08-17T11:57:02.427Z,34.53
2022-08-17T11:59:58.438Z,33.57
2022-08-17T12:02:48.271Z,33.33
2022-08-17T12:05:33.278Z,33.13
2022-08-17T12:08:14.776Z,33.27
2022-08-17T12:10:54.246Z,33.12
2022-08-17T12:13:23.686Z,33.58
2022-08-17T12:15:59.621Z,33.42
2022-08-17T12:18:32.177Z,32.77
2022-08-17T12:21:28.602Z,32.87
2022-08-17T12:24:00.812Z,32.93
2022-08-17T12:26:32.413Z,31.35
2022-08-17T12:29:03.203Z,31.78
2022-08-17T12:31:37.058Z,31.76
2022-08-17T12:34:06.531Z,32.32
2022-08-17T12:36:35.021Z,31.91
2022-08-17T12:39:14.441Z,32.31
2022-08-17T12:41:51.574Z,32.29
2022-08-17T12:44:21.527Z,32.46
2022-08-17T12:46:53.545Z,32.69
2022-08-17T12:49:27.425Z,32.37
2022-08-17T12:52:03.522Z,32.49
2022-08-17T12:54:40.167Z,31.20
2022-08-17T12:57:13.436Z,30.83
2022-08-17T12:59:44.322Z,29.98
2022-08-17T13:02:22.989Z,30.17
2022-08-17T13:04:52.318Z,30.31
2022-08-17T13:07:36.269Z,30.38
2022-08-17T13:10:05.442Z,30.49
2022-08-17T13:12:35.870Z,30.99
2022-08-17T13:15:04.656Z,31.37
2022-08-17T13:17:36.487Z,32.27
2022-08-17T13:20:14.725Z,31.33
2022-08-17T13:22:44.455Z,31.29
2022-08-17T13:25:17.844Z,31.75
2022-08-17T13:27:48.944Z,31.42
2022-08-17T13:30:23.744Z,30.89
2022-08-17T13:32:53.806Z,31.21
2022-08-17T13:35:50.102Z,31.62
2022-08-17T13:38:40.400Z,31.67
2022-08-17T13:41:08.854Z,32.03
2022-08-17T13:43:50.504Z,32.06
2022-08-17T13:46:21.890Z,30.67
2022-08-17T13:49:00.027Z,30.45
2022-08-17T13:51:32.266Z,31.75
2022-08-17T13:54:19.867Z,31.22
2022-08-17T13:56:55.634Z,30.00
2022-08-17T13:59:53.062Z,30.94
2022-08-17T14:02:21.129Z,31.38
2022-08-17T14:04:50.224Z,32.14
2022-08-17T14:07:36.978Z,31.70
2022-08-17T14:10:12.348Z,31.18
2022-08-17T14:12:42.222Z,31.94
2022-08-17T14:15:11.793Z,30.80
2022-08-17T14:17:39.640Z,30.51
2022-08-17T14:20:10.397Z,31.77
2022-08-17T14:22:44.150Z,31.32
2022-08-17T14:25:13.653Z,32.00
2022-08-17T14:27:47.138Z,32.47
2022-08-17T14:30:22.939Z,32.48
2022-08-17T14:32:52.010Z,33.52
2022-08-17T14:35:22.329Z,33.36
2022-08-17T14:37:52.268Z,34.03
2022-08-17T14:40:24.983Z,33.13
2022-08-17T14:42:55.014Z,34.47
2022-08-17T14:45:31.683Z,34.25
2022-08-17T14:48:03.881Z,34.39
2022-08-17T14:50:32.185Z,34.74
2022-08-17T14:53:06.109Z,34.21
2022-08-17T14:55:34.493Z,35.08
2022-08-17T14:58:03.863Z,35.18
2022-08-17T15:00:32.177Z,34.89
2022-08-17T15:03:01.348Z,37.23
2022-08-17T15:05:31.445Z,37.93
2022-08-17T15:07:59.560Z,37.90
2022-08-17T15:10:29.806Z,39.69
2022-08-17T15:12:58.413Z,40.46
2022-08-17T15:15:27.055Z,42.73
2022-08-17T15:17:55.262Z,46.29
2022-08-17T15:20:26.354Z,46.73
2022-08-17T15:22:57.059Z,47.37
2022-08-17T15:25:27.455Z,48.88
2022-08-17T15:27:57.006Z,48.07
2022-08-17T15:30:26.937Z,47.19
2022-08-17T15:32:55.846Z,48.21
2022-08-17T15:35:27.958Z,49.00
2022-08-17T15:38:06.228Z,47.04
2022-08-17T15:40:40.409Z,47.19
2022-08-17T15:43:12.772Z,46.60
2022-08-17T15:45:41.071Z,46.51
2022-08-17T15:48:09.485Z,47.82
2022-08-17T15:50:37.312Z,49.10
2022-08-17T15:53:05.736Z,49.74
2022-08-17T15:55:34.806Z,50.32
2022-08-17T15:58:02.637Z,52.11
2022-08-17T16:00:34.603Z,52.04
2022-08-17T16:04:01.348Z,52.02
2022-08-17T16:06:04.830Z,51.99
2022-08-17T16:08:32.678Z,51.41
2022-08-17T16:11:00.716Z,50.52
2022-08-17T16:13:28.990Z,50.38
2022-08-17T16:15:58.850Z,50.94
2022-08-17T16:18:30.772Z,51.23
2022-08-17T16:21:19.475Z,51.73
2022-08-17T16:23:48.032Z,51.40
2022-08-17T16:26:15.981Z,51.48
2022-08-17T16:28:43.844Z,50.25
2022-08-17T16:31:14.298Z,49.67
2022-08-17T16:33:42.414Z,48.79
2022-08-17T16:36:31.023Z,48.34
2022-08-17T16:38:59.363Z,47.24
2022-08-17T16:41:45.339Z,45.43
2022-08-17T16:44:15.326Z,44.61
2022-08-17T16:46:45.809Z,43.60
2022-08-17T16:49:27.610Z,41.44
2022-08-17T16:52:02.982Z,41.79
2022-08-17T16:54:30.932Z,40.29
2022-08-17T16:56:59.109Z,39.04
2022-08-17T16:59:38.715Z,39.13
2022-08-17T17:02:11.109Z,39.48
2022-08-17T17:04:46.366Z,38.82
2022-08-17T17:07:28.887Z,37.17
2022-08-17T17:09:57.156Z,36.89
2022-08-17T17:13:00.942Z,36.85
2022-08-17T17:15:22.097Z,38.53
2022-08-17T17:17:52.522Z,38.03
2022-08-17T17:20:26.334Z,37.93
2022-08-17T17:23:05.256Z,37.84
2022-08-17T17:25:39.595Z,36.82
2022-08-17T17:28:15.613Z,36.63
2022-08-17T17:30:50.955Z,35.74
2022-08-17T17:33:22.485Z,36.34
2022-08-17T17:35:54.595Z,37.29
2022-08-17T17:38:29.093Z,37.79
2022-08-17T17:41:04.393Z,39.50
2022-08-17T17:43:39.824Z,40.38
2022-08-17T17:46:27.504Z,42.08
2022-08-17T17:48:59.027Z,42.52
2022-08-17T17:52:07.626Z,42.50
2022-08-17T17:54:36.963Z,43.63
2022-08-17T17:57:12.449Z,43.93
2022-08-17T17:59:49.223Z,44.95
2022-08-17T18:02:51.956Z,45.33
2022-08-17T18:05:48.350Z,46.86
2022-08-17T18:08:31.905Z,47.55
2022-08-17T18:11:08.240Z,48.21
2022-08-17T18:13:54.191Z,48.21
2022-08-17T18:16:23.282Z,48.92
2022-08-17T18:18:53.497Z,49.67
2022-08-17T18:21:27.540Z,49.82
2022-08-17T18:23:58.077Z,50.19
2022-08-17T18:26:42.080Z,50.46
2022-08-17T18:29:31.195Z,51.20
2022-08-17T18:32:31.125Z,51.57
2022-08-17T18:35:02.804Z,51.79
2022-08-17T18:37:40.034Z,52.19
2022-08-17T18:40:37.615Z,52.49
2022-08-17T18:43:13.309Z,52.48
2022-08-17T18:45:46.680Z,52.81
2022-08-17T18:48:28.635Z,53.08
2022-08-17T18:50:59.857Z,53.32
2022-08-17T18:53:36.640Z,53.78
2022-08-17T18:56:22.680Z,54.10
2022-08-17T18:59:11.230Z,54.19
2022-08-17T19:01:53.555Z,54.62
2022-08-17T19:04:34.822Z,55.00
2022-08-17T19:07:06.138Z,55.62
2022-08-17T19:09:39.352Z,56.08
2022-08-17T19:12:11.203Z,56.54
2022-08-17T19:14:39.502Z,56.77
2022-08-17T19:17:16.858Z,56.73
2022-08-17T19:19:51.637Z,57.19
2022-08-17T19:22:31.081Z,57.21
2022-08-17T19:25:11.896Z,57.42
2022-08-17T19:27:57.793Z,57.40
2022-08-17T19:30:27.756Z,58.16
2022-08-17T19:32:57.699Z,58.38
2022-08-17T19:35:31.874Z,58.76
2022-08-17T19:38:06.266Z,58.55
2022-08-17T19:40:59.638Z,58.74
2022-08-17T19:43:41.590Z,58.45
2022-08-17T19:46:18.261Z,58.96
2022-08-17T19:48:53.446Z,59.88
2022-08-17T19:51:31.635Z,59.91
2022-08-17T19:54:06.918Z,59.47
2022-08-17T19:56:45.123Z,59.73
2022-08-17T19:59:23.586Z,59.54
2022-08-17T20:01:57.230Z,60.01
2022-08-17T20:04:38.119Z,60.53
2022-08-17T20:07:11.013Z,60.29
2022-08-17T20:09:43.630Z,60.61
2022-08-17T20:12:17.558Z,61.22
2022-08-17T20:14:53.231Z,61.06
2022-08-17T20:17:23.399Z,61.65
2022-08-17T20:19:55.376Z,61.77
2022-08-17T20:22:30.717Z,62.96
2022-08-17T20:25:11.425Z,63.15
2022-08-17T20:27:52.032Z,63.80
2022-08-17T20:30:34.582Z,63.86
2022-08-17T20:33:03.439Z,64.66
2022-08-17T20:35:33.283Z,64.32
2022-08-17T20:38:09.173Z,65.05
2022-08-17T20:40:39.967Z,64.93
2022-08-17T20:43:47.405Z,65.08
2022-08-17T20:46:33.001Z,65.18
2022-08-17T20:49:16.468Z,65.43
2022-08-17T20:52:00.557Z,66.07
2022-08-17T20:54:44.262Z,66.27
2022-08-17T20:57:49.037Z,65.85
2022-08-17T21:00:42.477Z,66.09
2022-08-17T21:03:49.968Z,65.63
2022-08-17T21:06:23.115Z,66.73
2022-08-17T21:08:54.820Z,66.96
2022-08-17T21:12:02.921Z,66.48
2022-08-17T21:14:59.664Z,66.43
2022-08-17T21:17:42.051Z,66.61
2022-08-17T21:20:25.298Z,66.44
2022-08-17T21:23:08.040Z,66.93
2022-08-17T21:26:07.853Z,68.76
2022-08-17T21:29:01.070Z,68.18
2022-08-17T21:31:37.434Z,67.78
2022-08-17T21:34:28.202Z,67.41
2022-08-17T21:36:57.683Z,67.63
2022-08-17T21:39:34.376Z,68.05
2022-08-17T21:42:02.664Z,68.08
2022-08-17T21:44:34.928Z,68.15
2022-08-17T21:47:23.594Z,68.70
2022-08-17T21:49:51.706Z,69.79
2022-08-17T21:52:23.314Z,70.41
2022-08-17T21:54:54.420Z,70.68
2022-08-17T21:57:27.347Z,69.97
2022-08-17T21:59:58.143Z,70.62
2022-08-17T22:02:32.810Z,71.11
2022-08-17T22:05:02.968Z,71.20
2022-08-17T22:07:39.668Z,71.35
2022-08-17T22:10:27.577Z,71.90
2022-08-17T22:13:17.066Z,73.84
2022-08-17T22:15:47.679Z,74.23
2022-08-17T22:18:20.899Z,74.22
2022-08-17T22:20:53.455Z,73.95
2022-08-17T22:23:45.142Z,73.46
2022-08-17T22:26:15.726Z,73.31
2022-08-17T22:28:46.643Z,74.11
2022-08-17T22:31:16.634Z,74.31
2022-08-17T22:33:49.340Z,74.06
2022-08-17T22:36:29.176Z,74.38
2022-08-17T22:38:58.723Z,74.83
2022-08-17T22:41:41.358Z,75.53
2022-08-17T22:44:17.189Z,75.42
2022-08-17T22:47:25.274Z,75.42
2022-08-17T22:49:57.502Z,75.88
2022-08-17T22:52:33.009Z,77.53
2022-08-17T22:55:23.793Z,78.85
2022-08-17T22:58:10.022Z,79.59
2022-08-17T23:00:41.313Z,79.09
2022-08-17T23:03:14.201Z,78.65
2022-08-17T23:05:47.271Z,78.72
2022-08-17T23:08:20.996Z,78.74
2022-08-17T23:10:49.411Z,78.33
2022-08-17T23:13:17.343Z,77.15
2022-08-17T23:15:52.586Z,76.58
2022-08-17T23:18:20.906Z,76.14
2022-08-17T23:20:50.191Z,76.96
2022-08-17T23:23:23.419Z,76.82
2022-08-17T23:25:51.721Z,76.98
2022-08-17T23:28:19.844Z,76.79
2022-08-17T23:30:48.425Z,76.49
2022-08-17T23:33:21.316Z,77.44
2022-08-17T23:35:50.600Z,77.80
2022-08-17T23:38:18.534Z,78.59
2022-08-17T23:40:46.507Z,79.52
2022-08-17T23:43:25.325Z,80.28
2022-08-17T23:45:54.936Z,80.49
2022-08-17T23:48:35.044Z,80.65
2022-08-17T23:51:09.822Z,80.63
2022-08-17T23:53:42.661Z,80.11
2022-08-17T23:56:11.702Z,79.99
2022-08-17T23:58:43.236Z,79.62
